createdAt,value
2022-12-03T00:00:54.769Z,89.51
2022-12-03T00:03:23.505Z,89.42
2022-12-03T00:05:50.825Z,89.60
2022-12-03T00:08:18.201Z,89.55
2022-12-03T00:10:45.058Z,89.58
2022-12-03T00:13:12.071Z,90.01
2022-12-03T00:15:38.989Z,90.05
2022-12-03T00:18:07.538Z,90.36
2022-12-03T00:20:35.402Z,90.15
2022-12-03T00:23:02.381Z,90.19
2022-12-03T00:25:29.187Z,89.92
2022-12-03T00:27:56.233Z,90.28
2022-12-03T00:30:23.168Z,90.40
2022-12-03T00:32:50.064Z,90.02
2022-12-03T00:35:18.128Z,90.03
2022-12-03T00:37:46.092Z,89.98
2022-12-03T00:40:13.194Z,89.88
2022-12-03T00:42:40.545Z,90.06
2022-12-03T00:45:08.141Z,90.18
2022-12-03T00:47:35.402Z,90.37
2022-12-03T00:50:05.684Z,90.47
2022-12-03T00:52:32.841Z,90.44
2022-12-03T00:55:01.860Z,90.37
2022-12-03T00:57:28.736Z,90.46
2022-12-03T00:59:55.814Z,90.48
2022-12-03T01:02:22.757Z,90.20
2022-12-03T01:04:50.277Z,89.92
2022-12-03T01:07:17.636Z,90.11
2022-12-03T01:09:44.466Z,89.91
2022-12-03T01:12:17.359Z,89.98
2022-12-03T01:14:45.160Z,90.36
2022-12-03T01:17:13.527Z,90.31
2022-12-03T01:19:46.501Z,89.98
2022-12-03T01:22:15.159Z,90.04
2022-12-03T01:24:42.149Z,90.23
2022-12-03T01:27:09.174Z,90.54
2022-12-03T01:29:35.970Z,90.35
2022-12-03T01:32:02.956Z,90.16
2022-12-03T01:34:30.971Z,89.91
2022-12-03T01:36:57.945Z,90.01
2022-12-03T01:39:24.913Z,90.06
2022-12-03T01:41:53.277Z,90.00
2022-12-03T01:44:23.957Z,90.06
2022-12-03T01:46:53.665Z,89.86
2022-12-03T01:49:24.979Z,90.06
2022-12-03T01:51:53.783Z,90.65
2022-12-03T01:54:29.582Z,90.79
2022-12-03T01:56:56.653Z,91.18
2022-12-03T01:59:34.980Z,90.93
2022-12-03T02:02:19.239Z,90.96
2022-12-03T02:04:49.541Z,90.67
2022-12-03T02:07:18.860Z,90.84
2022-12-03T02:09:46.022Z,90.88
2022-12-03T02:12:15.757Z,91.25
2022-12-03T02:14:43.419Z,91.47
2022-12-03T02:17:11.904Z,91.43
2022-12-03T02:19:39.573Z,91.14
2022-12-03T02:22:28.174Z,90.78
2022-12-03T02:25:07.086Z,90.70
2022-12-03T02:27:34.018Z,90.52
2022-12-03T02:30:00.996Z,90.37
2022-12-03T02:32:28.949Z,90.58
2022-12-03T02:34:56.185Z,90.14
2022-12-03T02:37:29.729Z,89.90
2022-12-03T02:40:01.370Z,90.31
2022-12-03T02:42:29.806Z,90.37
2022-12-03T02:45:04.703Z,90.67
2022-12-03T02:47:35.498Z,91.05
2022-12-03T02:50:03.389Z,91.08
2022-12-03T02:52:30.961Z,91.05
2022-12-03T02:54:59.089Z,90.79
2022-12-03T02:57:27.125Z,90.58
2022-12-03T02:59:54.095Z,90.59
2022-12-03T03:02:21.070Z,90.35
2022-12-03T03:04:49.110Z,90.11
2022-12-03T03:07:16.846Z,90.07
2022-12-03T03:09:43.787Z,89.58
2022-12-03T03:12:11.121Z,89.59
2022-12-03T03:14:38.607Z,89.41
2022-12-03T03:17:05.997Z,89.23
2022-12-03T03:19:33.206Z,89.18
2022-12-03T03:22:01.170Z,89.23
2022-12-03T03:24:28.217Z,89.34
2022-12-03T03:26:55.603Z,89.26
2022-12-03T03:29:28.681Z,88.96
2022-12-03T03:31:55.820Z,88.71
2022-12-03T03:34:23.204Z,88.36
2022-12-03T03:36:50.582Z,88.20
2022-12-03T03:39:17.445Z,88.33
2022-12-03T03:41:46.756Z,88.28
2022-12-03T03:44:14.567Z,88.17
2022-12-03T03:46:42.717Z,88.52
2022-12-03T03:49:10.499Z,88.89
2022-12-03T03:51:38.963Z,88.91
2022-12-03T03:54:06.907Z,89.07
2022-12-03T03:56:35.084Z,88.92
2022-12-03T03:59:03.950Z,88.59
2022-12-03T04:01:31.916Z,88.44
2022-12-03T04:03:59.655Z,88.08
2022-12-03T04:06:27.551Z,88.00
2022-12-03T04:08:54.871Z,88.18
2022-12-03T04:11:22.107Z,88.48
2022-12-03T04:13:51.039Z,89.24
2022-12-03T04:16:18.003Z,89.85
2022-12-03T04:18:44.895Z,90.44
2022-12-03T04:21:14.549Z,90.46
2022-12-03T04:23:41.323Z,90.59
2022-12-03T04:26:08.297Z,90.28
2022-12-03T04:28:35.251Z,90.37
2022-12-03T04:31:02.228Z,90.66
2022-12-03T04:33:29.182Z,90.92
2022-12-03T04:35:56.116Z,90.91
2022-12-03T04:38:23.003Z,91.09
2022-12-03T04:40:49.952Z,91.20
2022-12-03T04:43:16.863Z,91.38
2022-12-03T04:45:44.946Z,91.35
2022-12-03T04:48:12.345Z,91.25
2022-12-03T04:50:39.260Z,90.98
2022-12-03T04:53:06.375Z,91.19
2022-12-03T04:55:33.853Z,91.47
2022-12-03T04:58:01.275Z,91.41
2022-12-03T05:00:28.639Z,91.51
2022-12-03T05:02:55.670Z,91.71
2022-12-03T05:05:22.945Z,91.73
2022-12-03T05:07:51.063Z,91.54
2022-12-03T05:10:18.551Z,91.57
2022-12-03T05:12:45.899Z,91.45
2022-12-03T05:15:12.917Z,91.36
2022-12-03T05:17:39.774Z,91.46
2022-12-03T05:20:09.621Z,91.66
2022-12-03T05:22:36.836Z,91.72
2022-12-03T05:25:04.337Z,91.65
2022-12-03T05:27:31.672Z,91.69
2022-12-03T05:29:58.629Z,91.82
2022-12-03T05:32:26.513Z,91.66
2022-12-03T05:34:53.779Z,91.65
2022-12-03T05:37:20.945Z,91.65
2022-12-03T05:39:47.980Z,90.99
2022-12-03T05:42:14.926Z,90.69
2022-12-03T05:44:41.866Z,90.33
2022-12-03T05:47:08.753Z,90.51
2022-12-03T05:49:35.772Z,90.42
2022-12-03T05:52:02.732Z,90.45
2022-12-03T05:54:30.092Z,90.22
2022-12-03T05:56:57.096Z,90.06
2022-12-03T05:59:24.105Z,90.22
2022-12-03T06:01:50.956Z,90.09
2022-12-03T06:04:18.901Z,90.10
2022-12-03T06:06:45.782Z,89.93
2022-12-03T06:09:13.306Z,89.97
2022-12-03T06:11:40.181Z,90.05
2022-12-03T06:14:07.285Z,90.08
2022-12-03T06:16:34.221Z,90.26
2022-12-03T06:19:01.528Z,90.51
2022-12-03T06:21:28.569Z,90.16
2022-12-03T06:23:55.523Z,89.54
2022-12-03T06:26:22.537Z,89.53
2022-12-03T06:28:50.012Z,89.65
2022-12-03T06:31:17.579Z,90.13
2022-12-03T06:33:44.829Z,90.20
2022-12-03T06:36:11.858Z,89.98
2022-12-03T06:38:39.254Z,89.42
2022-12-03T06:41:06.132Z,88.99
2022-12-03T06:43:33.070Z,89.52
2022-12-03T06:46:00.194Z,89.32
2022-12-03T06:48:27.554Z,89.86
2022-12-03T06:50:55.037Z,89.99
2022-12-03T06:53:22.488Z,89.97
2022-12-03T06:55:49.266Z,90.14
2022-12-03T06:58:16.238Z,89.83
2022-12-03T07:00:43.381Z,89.95
2022-12-03T07:03:16.521Z,89.38
2022-12-03T07:05:43.847Z,89.27
2022-12-03T07:08:10.920Z,89.21
2022-12-03T07:10:38.339Z,88.97
2022-12-03T07:13:05.238Z,88.32
2022-12-03T07:15:32.118Z,88.22
2022-12-03T07:17:59.380Z,88.02
2022-12-03T07:20:26.558Z,88.42
2022-12-03T07:22:53.426Z,88.39
2022-12-03T07:25:23.400Z,88.42
2022-12-03T07:27:51.153Z,88.10
2022-12-03T07:30:19.443Z,88.15
2022-12-03T07:32:46.223Z,88.39
2022-12-03T07:35:13.553Z,88.78
2022-12-03T07:37:40.733Z,89.03
2022-12-03T07:40:08.120Z,89.16
2022-12-03T07:42:35.412Z,89.06
2022-12-03T07:45:02.859Z,89.00
2022-12-03T07:47:30.201Z,88.76
2022-12-03T07:49:57.215Z,88.63
2022-12-03T07:52:24.619Z,88.90
2022-12-03T07:54:51.847Z,88.40
2022-12-03T07:57:19.490Z,88.32
2022-12-03T07:59:46.379Z,88.03
2022-12-03T08:02:19.532Z,88.21
2022-12-03T08:04:47.857Z,88.21
2022-12-03T08:07:14.829Z,88.15
2022-12-03T08:09:42.258Z,87.89
2022-12-03T08:12:30.413Z,87.79
2022-12-03T08:14:57.639Z,87.18
2022-12-03T08:17:27.036Z,87.01
2022-12-03T08:19:54.117Z,87.17
2022-12-03T08:22:21.048Z,86.78
2022-12-03T08:24:48.001Z,86.17
2022-12-03T08:27:19.700Z,86.18
2022-12-03T08:29:46.928Z,85.96
2022-12-03T08:32:14.043Z,85.80
2022-12-03T08:34:43.327Z,85.87
2022-12-03T08:37:20.324Z,85.66
2022-12-03T08:39:50.495Z,85.75
2022-12-03T08:42:22.134Z,85.92
2022-12-03T08:44:49.462Z,85.51
2022-12-03T08:47:21.629Z,85.46
2022-12-03T08:49:55.687Z,85.29
2022-12-03T08:52:30.770Z,85.27
2022-12-03T08:54:57.874Z,84.94
2022-12-03T08:57:33.620Z,84.61
2022-12-03T09:00:15.766Z,84.31
2022-12-03T09:02:48.260Z,84.29
2022-12-03T09:05:32.823Z,83.79
2022-12-03T09:07:59.893Z,83.52
2022-12-03T09:10:27.056Z,82.92
2022-12-03T09:12:54.022Z,83.71
2022-12-03T09:15:20.918Z,83.43
2022-12-03T09:17:47.936Z,83.34
2022-12-03T09:20:15.023Z,83.42
2022-12-03T09:22:42.304Z,83.04
2022-12-03T09:25:10.490Z,82.80
2022-12-03T09:27:37.887Z,82.31
2022-12-03T09:30:06.192Z,82.03
2022-12-03T09:32:33.507Z,81.85
2022-12-03T09:35:00.880Z,81.17
2022-12-03T09:37:28.119Z,80.98
2022-12-03T09:39:54.947Z,80.67
2022-12-03T09:42:22.470Z,79.13
2022-12-03T09:44:49.316Z,80.59
2022-12-03T09:47:16.571Z,81.28
2022-12-03T09:49:44.290Z,80.36
2022-12-03T09:52:20.819Z,79.79
2022-12-03T09:54:48.266Z,79.18
2022-12-03T09:57:16.913Z,79.34
2022-12-03T09:59:43.953Z,81.05
2022-12-03T10:02:31.504Z,80.79
2022-12-03T10:04:59.074Z,79.69
2022-12-03T10:07:26.612Z,79.75
2022-12-03T10:09:54.328Z,80.54
2022-12-03T10:12:24.913Z,79.85
2022-12-03T10:14:53.784Z,81.07
2022-12-03T10:17:21.690Z,80.49
2022-12-03T10:19:48.776Z,80.98
2022-12-03T10:22:16.170Z,80.71
2022-12-03T10:24:43.119Z,80.35
2022-12-03T10:27:30.698Z,80.01
2022-12-03T10:30:00.590Z,79.52
2022-12-03T10:32:49.397Z,80.39
2022-12-03T10:35:39.651Z,79.83
2022-12-03T10:38:20.188Z,79.62
2022-12-03T10:40:47.261Z,80.59
2022-12-03T10:43:25.200Z,79.96
2022-12-03T10:46:03.558Z,79.94
2022-12-03T10:48:31.653Z,79.44
2022-12-03T10:51:20.226Z,80.37
2022-12-03T10:53:49.950Z,79.59
2022-12-03T10:56:28.779Z,79.99
2022-12-03T10:58:56.227Z,79.64
2022-12-03T11:01:25.854Z,79.67
2022-12-03T11:04:04.145Z,79.10
2022-12-03T11:06:32.124Z,78.89
2022-12-03T11:09:06.939Z,78.80
2022-12-03T11:11:36.255Z,79.02
2022-12-03T11:14:04.994Z,79.75
2022-12-03T11:16:47.292Z,78.71
2022-12-03T11:19:38.852Z,78.54
2022-12-03T11:22:05.706Z,78.52
2022-12-03T11:24:40.401Z,78.80
2022-12-03T11:27:15.289Z,79.35
2022-12-03T11:29:48.011Z,79.77
2022-12-03T11:32:59.888Z,79.96
2022-12-03T11:35:35.230Z,80.13
2022-12-03T11:38:39.247Z,80.04
2022-12-03T11:41:17.706Z,80.63
2022-12-03T11:43:53.914Z,80.29
2022-12-03T11:46:22.628Z,80.60
2022-12-03T11:48:51.575Z,79.88
2022-12-03T11:51:23.073Z,79.88
2022-12-03T11:53:52.655Z,80.12
2022-12-03T11:56:24.667Z,80.94
2022-12-03T11:59:03.539Z,80.62
2022-12-03T12:01:39.269Z,80.88
2022-12-03T12:04:08.579Z,80.64
2022-12-03T12:06:44.288Z,80.81
2022-12-03T12:09:11.438Z,79.73
2022-12-03T12:11:39.678Z,80.29
2022-12-03T12:14:11.707Z,79.32
2022-12-03T12:16:51.109Z,79.84
2022-12-03T12:19:40.754Z,79.22
2022-12-03T12:22:22.825Z,79.23
2022-12-03T12:24:52.897Z,79.25
2022-12-03T12:27:30.059Z,79.06
2022-12-03T12:30:09.222Z,78.67
2022-12-03T12:32:47.429Z,79.57
2022-12-03T12:35:19.752Z,79.40
2022-12-03T12:38:00.622Z,79.54
2022-12-03T12:40:32.923Z,80.00
2022-12-03T12:43:08.482Z,79.27
2022-12-03T12:45:42.030Z,79.56
2022-12-03T12:48:18.340Z,79.23
2022-12-03T12:50:49.032Z,79.77
2022-12-03T12:53:25.183Z,79.14
2022-12-03T12:55:58.615Z,78.79
2022-12-03T12:58:28.809Z,78.53
2022-12-03T13:01:07.805Z,78.62
2022-12-03T13:03:39.424Z,78.65
2022-12-03T13:06:06.682Z,78.55
2022-12-03T13:08:39.639Z,78.60
2022-12-03T13:11:33.248Z,78.43
2022-12-03T13:14:33.231Z,77.83
2022-12-03T13:17:01.801Z,77.49
2022-12-03T13:19:43.302Z,77.87
2022-12-03T13:22:18.591Z,77.39
2022-12-03T13:24:51.189Z,77.64
2022-12-03T13:27:18.269Z,78.15
2022-12-03T13:29:47.589Z,78.22
2022-12-03T13:32:19.476Z,78.36
2022-12-03T13:34:47.587Z,79.21
2022-12-03T13:37:20.210Z,79.64
2022-12-03T13:39:51.925Z,79.91
2022-12-03T13:42:25.173Z,80.38
2022-12-03T13:44:53.493Z,79.35
2022-12-03T13:47:22.096Z,79.57
2022-12-03T13:50:00.676Z,80.04
2022-12-03T13:52:32.872Z,80.44
2022-12-03T13:55:03.621Z,80.06
2022-12-03T13:57:30.883Z,79.47
2022-12-03T13:59:57.762Z,79.90
2022-12-03T14:02:24.719Z,79.83
2022-12-03T14:04:56.842Z,80.14
2022-12-03T14:07:34.057Z,80.32
2022-12-03T14:10:01.645Z,80.49
2022-12-03T14:12:28.900Z,81.07
2022-12-03T14:14:55.851Z,80.92
2022-12-03T14:17:23.808Z,81.10
2022-12-03T14:19:52.389Z,80.80
2022-12-03T14:22:19.773Z,80.77
2022-12-03T14:24:47.716Z,80.66
2022-12-03T14:27:16.780Z,80.47
2022-12-03T14:29:43.602Z,81.00
2022-12-03T14:32:10.645Z,80.94
2022-12-03T14:34:38.249Z,81.28
2022-12-03T14:37:06.754Z,81.16
2022-12-03T14:39:33.925Z,80.94
2022-12-03T14:42:00.920Z,80.84
2022-12-03T14:44:28.870Z,81.11
2022-12-03T14:46:57.452Z,81.75
2022-12-03T14:49:25.307Z,81.52
2022-12-03T14:51:52.363Z,81.38
2022-12-03T14:54:20.761Z,81.74
2022-12-03T14:56:47.888Z,81.48
2022-12-03T14:59:15.303Z,81.54
2022-12-03T15:01:42.240Z,81.06
2022-12-03T15:04:09.618Z,80.52
2022-12-03T15:06:36.788Z,80.88
2022-12-03T15:09:04.368Z,81.60
2022-12-03T15:11:40.236Z,81.50
2022-12-03T15:14:12.732Z,81.66
2022-12-03T15:16:40.619Z,81.18
2022-12-03T15:19:10.409Z,81.28
2022-12-03T15:21:37.566Z,81.25
2022-12-03T15:24:05.786Z,81.13
2022-12-03T15:26:34.180Z,81.53
2022-12-03T15:31:55.289Z,81.65
2022-12-03T15:34:23.303Z,81.70
2022-12-03T15:36:50.984Z,81.96
2022-12-03T15:39:17.838Z,82.21
2022-12-03T15:41:44.891Z,82.71
2022-12-03T15:44:12.908Z,82.68
2022-12-03T15:46:39.952Z,82.75
2022-12-03T15:49:06.857Z,82.94
2022-12-03T15:51:33.789Z,82.77
2022-12-03T15:54:00.951Z,82.92
2022-12-03T15:56:28.235Z,82.63
2022-12-03T15:58:55.306Z,82.78
2022-12-03T16:01:23.744Z,82.49
2022-12-03T16:03:50.943Z,82.44
2022-12-03T16:06:17.990Z,82.16
2022-12-03T16:08:44.864Z,82.01
2022-12-03T16:11:12.930Z,81.86
2022-12-03T16:13:39.936Z,81.58
2022-12-03T16:16:07.094Z,81.66
2022-12-03T16:18:34.292Z,81.42
2022-12-03T16:21:01.398Z,81.90
2022-12-03T16:23:29.007Z,81.71
2022-12-03T16:25:57.232Z,81.03
2022-12-03T16:28:26.148Z,81.29
2022-12-03T16:30:54.411Z,81.07
2022-12-03T16:33:27.266Z,80.74
2022-12-03T16:35:55.314Z,80.94
2022-12-03T16:38:22.570Z,80.94
2022-12-03T16:40:49.690Z,80.53
2022-12-03T16:43:16.699Z,80.98
2022-12-03T16:45:44.637Z,81.19
2022-12-03T16:48:11.752Z,81.56
2022-12-03T16:50:39.046Z,82.24
2022-12-03T16:53:07.155Z,82.90
2022-12-03T16:55:35.186Z,83.33
2022-12-03T16:58:02.754Z,84.13
2022-12-03T17:00:29.987Z,84.40
2022-12-03T17:02:57.026Z,84.14
2022-12-03T17:05:24.582Z,84.33
2022-12-03T17:07:52.147Z,84.95
2022-12-03T17:10:19.435Z,85.11
2022-12-03T17:13:10.166Z,85.51
2022-12-03T17:15:35.678Z,85.40
2022-12-03T17:18:04.647Z,85.22
2022-12-03T17:20:32.974Z,85.64
2022-12-03T17:23:00.742Z,85.90
2022-12-03T17:25:28.284Z,86.04
2022-12-03T17:27:55.442Z,86.21
2022-12-03T17:30:22.798Z,86.50
2022-12-03T17:36:22.383Z,86.86
2022-12-03T17:38:49.479Z,86.83
2022-12-03T17:41:16.431Z,87.04
2022-12-03T17:43:43.304Z,86.95
2022-12-03T17:46:10.276Z,87.09
2022-12-03T17:48:37.200Z,87.16
2022-12-03T17:51:04.216Z,87.17
2022-12-03T17:53:31.226Z,87.13
2022-12-03T17:55:57.993Z,87.14
2022-12-03T17:58:24.962Z,87.21
2022-12-03T18:00:56.032Z,87.38
2022-12-03T18:03:27.565Z,87.54
2022-12-03T18:05:54.601Z,87.38
2022-12-03T18:08:21.546Z,87.20
2022-12-03T18:10:49.318Z,87.07
2022-12-03T18:13:16.379Z,86.78
2022-12-03T18:15:43.403Z,86.50
2022-12-03T18:18:10.674Z,86.51
2022-12-03T18:20:37.958Z,86.78
2022-12-03T18:23:05.660Z,87.26
2022-12-03T18:25:32.788Z,87.10
2022-12-03T18:28:01.301Z,87.37
2022-12-03T18:30:28.637Z,87.36
2022-12-03T18:32:56.211Z,87.41
2022-12-03T18:35:23.849Z,87.27
2022-12-03T18:37:51.440Z,87.23
2022-12-03T18:40:24.003Z,87.68
2022-12-03T18:42:51.127Z,88.14
2022-12-03T18:45:19.278Z,88.51
2022-12-03T18:47:46.552Z,88.54
2022-12-03T18:50:14.446Z,88.48
2022-12-03T18:52:41.460Z,88.72
2022-12-03T18:55:14.889Z,89.15
2022-12-03T18:57:41.894Z,88.96
2022-12-03T19:00:13.451Z,89.07
2022-12-03T19:05:29.018Z,89.44
2022-12-03T19:07:56.340Z,89.66
2022-12-03T19:10:24.105Z,89.66
2022-12-03T19:12:51.435Z,89.42
2022-12-03T19:15:19.194Z,89.42
2022-12-03T19:17:49.724Z,89.23
2022-12-03T19:20:16.734Z,88.84
2022-12-03T19:22:44.168Z,88.65
2022-12-03T19:25:12.102Z,88.43
2022-12-03T19:27:39.102Z,88.39
2022-12-03T19:30:06.919Z,88.40
2022-12-03T19:32:35.052Z,88.58
2022-12-03T19:35:02.692Z,88.50
2022-12-03T19:37:32.108Z,88.69
2022-12-03T19:39:59.912Z,88.61
2022-12-03T19:42:26.851Z,88.49
2022-12-03T19:44:53.868Z,89.05
2022-12-03T19:47:21.129Z,88.85
2022-12-03T19:49:48.625Z,89.41
2022-12-03T19:52:15.908Z,89.24
2022-12-03T19:54:44.103Z,89.43
2022-12-03T19:57:11.105Z,89.52
2022-12-03T19:59:38.920Z,89.39
2022-12-03T20:02:06.358Z,89.46
2022-12-03T20:04:33.453Z,89.64
2022-12-03T20:07:00.696Z,89.76
2022-12-03T20:09:28.079Z,90.11
2022-12-03T20:11:55.443Z,90.20
2022-12-03T20:14:22.602Z,90.13
2022-12-03T20:16:50.000Z,90.07
2022-12-03T20:19:18.221Z,90.17
2022-12-03T20:21:45.452Z,90.35
2022-12-03T20:24:17.428Z,90.40
2022-12-03T20:26:44.870Z,90.48
2022-12-03T20:29:12.336Z,90.23
2022-12-03T20:31:39.902Z,89.86
2022-12-03T20:34:07.171Z,90.15
2022-12-03T20:36:34.187Z,90.15
2022-12-03T20:39:04.004Z,90.27
2022-12-03T20:41:31.033Z,90.03
2022-12-03T20:43:58.074Z,90.34
2022-12-03T20:46:30.108Z,90.66
2022-12-03T20:48:57.844Z,90.86
2022-12-03T20:51:28.301Z,91.03
2022-12-03T20:53:58.546Z,91.48
2022-12-03T20:56:29.735Z,91.31
2022-12-03T20:58:57.071Z,91.22
2022-12-03T21:01:26.298Z,91.19
2022-12-03T21:03:55.508Z,91.33
2022-12-03T21:06:24.861Z,91.13
2022-12-03T21:08:56.202Z,90.97
2022-12-03T21:11:26.721Z,91.19
2022-12-03T21:13:54.673Z,91.08
2022-12-03T21:16:45.615Z,90.99
2022-12-03T21:19:11.294Z,91.22
2022-12-03T21:21:37.994Z,91.42
2022-12-03T21:24:06.222Z,91.64
2022-12-03T21:26:33.603Z,91.78
2022-12-03T21:29:00.516Z,92.09
2022-12-03T21:31:27.554Z,91.80
2022-12-03T21:33:56.037Z,92.36
2022-12-03T21:36:24.684Z,92.28
2022-12-03T21:38:53.107Z,92.13
2022-12-03T21:41:20.508Z,91.98
2022-12-03T21:43:48.161Z,91.62
2022-12-03T21:47:08.419Z,91.17
2022-12-03T21:49:02.601Z,91.28
2022-12-03T21:51:29.779Z,91.63
2022-12-03T21:53:58.442Z,92.00
2022-12-03T21:56:25.520Z,92.08
2022-12-03T21:58:53.420Z,92.39
2022-12-03T22:01:23.270Z,92.44
2022-12-03T22:03:50.832Z,92.43
2022-12-03T22:06:18.867Z,92.27
2022-12-03T22:08:46.219Z,92.54
2022-12-03T22:11:21.964Z,92.32
2022-12-03T22:13:49.490Z,92.07
2022-12-03T22:16:19.684Z,91.74
2022-12-03T22:18:50.321Z,92.04
2022-12-03T22:21:19.750Z,91.95
2022-12-03T22:23:49.100Z,91.84
2022-12-03T22:26:17.979Z,91.84
2022-12-03T22:28:48.809Z,91.81
2022-12-03T22:31:17.740Z,91.68
2022-12-03T22:33:45.201Z,91.59
2022-12-03T22:36:20.108Z,91.76
2022-12-03T22:38:48.736Z,91.69
2022-12-03T22:41:15.795Z,91.54
2022-12-03T22:43:42.881Z,91.61
2022-12-03T22:46:11.654Z,91.66
2022-12-03T22:48:39.379Z,91.81
2022-12-03T22:51:17.973Z,91.78
2022-12-03T22:53:45.564Z,91.81
2022-12-03T22:56:13.011Z,92.01
2022-12-03T22:58:40.731Z,91.87
2022-12-03T23:01:08.081Z,92.02
2022-12-03T23:03:36.221Z,91.81
2022-12-03T23:06:10.598Z,92.24
2022-12-03T23:08:38.372Z,92.27
2022-12-03T23:11:05.882Z,92.52
2022-12-03T23:13:33.109Z,92.26
2022-12-03T23:16:00.222Z,92.38
2022-12-03T23:18:27.596Z,92.06
2022-12-03T23:20:56.284Z,91.65
2022-12-03T23:23:25.858Z,91.23
2022-12-03T23:26:05.387Z,91.06
2022-12-03T23:28:34.350Z,90.84
2022-12-03T23:31:03.593Z,90.76
2022-12-03T23:33:36.672Z,90.85
2022-12-03T23:36:07.158Z,90.67
2022-12-03T23:38:34.573Z,90.92
2022-12-03T23:41:10.696Z,90.84
2022-12-03T23:43:38.756Z,90.74
2022-12-03T23:46:11.289Z,90.76
2022-12-03T23:48:38.454Z,90.81
2022-12-03T23:51:17.125Z,91.00
2022-12-03T23:53:45.069Z,91.04
2022-12-03T23:56:19.972Z,91.07
2022-12-03T23:58:47.725Z,91.14
